createdAt,value
2022-08-10T00:02:19.340Z,4.32
2022-08-10T00:04:48.935Z,3.50
2022-08-10T00:07:18.306Z,4.07
2022-08-10T00:09:50.746Z,4.15
2022-08-10T00:12:21.031Z,4.35
2022-08-10T00:14:50.806Z,4.85
2022-08-10T00:17:21.632Z,4.10
2022-08-10T00:20:03.062Z,4.50
2022-08-10T00:22:33.873Z,4.35
2022-08-10T00:25:06.018Z,4.32
2022-08-10T00:28:00.814Z,3.65
2022-08-10T00:30:24.878Z,4.70
2022-08-10T00:32:55.908Z,4.10
2022-08-10T00:35:25.031Z,4.18
2022-08-10T00:37:57.762Z,4.40
2022-08-10T00:43:06.952Z,3.85
2022-08-10T00:45:36.392Z,4.78
2022-08-10T00:48:07.164Z,5.20
2022-08-10T00:50:37.871Z,4.95
2022-08-10T00:53:08.102Z,4.18
2022-08-10T00:57:12.198Z,5.10
2022-08-10T00:58:29.181Z,4.40
2022-08-10T01:00:59.658Z,4.97
2022-08-10T01:04:40.071Z,4.60
2022-08-10T01:06:23.467Z,4.88
2022-08-10T01:08:54.312Z,4.70
2022-08-10T01:11:42.385Z,4.20
2022-08-10T01:14:24.016Z,4.10
2022-08-10T01:16:55.982Z,3.65
2022-08-10T01:19:30.944Z,4.45
2022-08-10T01:22:14.378Z,4.40
2022-08-10T01:25:03.202Z,4.68
2022-08-10T01:27:38.368Z,5.13
2022-08-10T01:30:10.963Z,5.38
2022-08-10T01:32:44.446Z,5.38
2022-08-10T01:35:15.322Z,6.15
2022-08-10T01:37:52.025Z,4.65
2022-08-10T01:40:25.763Z,4.78
2022-08-10T01:42:59.566Z,4.80
2022-08-10T01:45:45.319Z,5.05
2022-08-10T01:48:31.629Z,4.70
2022-08-10T01:51:11.150Z,4.90
2022-08-10T01:53:45.653Z,5.90
2022-08-10T01:56:17.451Z,5.68
2022-08-10T01:58:48.635Z,5.38
2022-08-10T02:01:20.804Z,4.30
2022-08-10T02:04:04.045Z,4.35
2022-08-10T02:06:37.446Z,4.38
2022-08-10T02:09:07.909Z,4.70
2022-08-10T02:11:55.641Z,4.00
2022-08-10T02:14:33.237Z,4.00
2022-08-10T02:17:05.652Z,3.75
2022-08-10T02:19:36.777Z,3.63
2022-08-10T02:22:37.504Z,3.75
2022-08-10T02:24:58.302Z,3.45
2022-08-10T02:27:29.453Z,2.85
2022-08-10T02:29:59.576Z,3.33
2022-08-10T02:32:37.817Z,3.40
2022-08-10T02:35:22.721Z,3.53
2022-08-10T02:37:55.080Z,3.28
2022-08-10T02:45:12.323Z,3.97
2022-08-10T02:45:24.119Z,4.35
2022-08-10T02:46:20.893Z,4.63
2022-08-10T02:48:56.042Z,4.53
2022-08-10T02:52:06.923Z,4.63
2022-08-10T02:54:17.791Z,4.30
2022-08-10T02:56:53.968Z,4.25
2022-08-10T02:59:25.913Z,4.60
2022-08-10T03:01:57.669Z,4.63
2022-08-10T03:04:55.118Z,3.88
2022-08-10T03:07:43.598Z,3.25
2022-08-10T03:10:14.622Z,3.83
2022-08-10T03:12:44.868Z,3.35
2022-08-10T03:15:15.706Z,4.10
2022-08-10T03:17:56.839Z,3.25
2022-08-10T03:20:36.464Z,3.80
2022-08-10T03:23:11.877Z,4.20
2022-08-10T03:25:52.535Z,3.67
2022-08-10T03:28:24.670Z,3.72
2022-08-10T03:30:54.758Z,3.70
2022-08-10T03:33:24.525Z,3.67
2022-08-10T03:36:44.040Z,3.35
2022-08-10T03:38:46.262Z,3.70
2022-08-10T03:41:16.163Z,3.83
2022-08-10T03:43:48.002Z,3.95
2022-08-10T03:46:18.081Z,3.55
2022-08-10T03:48:49.396Z,3.67
2022-08-10T03:51:20.786Z,3.90
2022-08-10T03:54:04.440Z,3.78
2022-08-10T03:56:37.743Z,4.22
2022-08-10T03:59:07.615Z,4.03
2022-08-10T04:02:41.816Z,3.63
2022-08-10T04:04:26.209Z,5.13
2022-08-10T04:06:57.864Z,4.50
2022-08-10T04:09:54.168Z,5.00
2022-08-10T04:12:20.432Z,5.82
2022-08-10T04:14:52.944Z,4.40
2022-08-10T04:17:56.846Z,4.88
2022-08-10T04:20:20.509Z,4.63
2022-08-10T04:22:52.985Z,4.43
2022-08-10T04:25:23.012Z,4.18
2022-08-10T04:27:58.823Z,4.65
2022-08-10T04:30:31.850Z,4.43
2022-08-10T04:33:03.043Z,4.00
2022-08-10T04:35:32.312Z,4.82
2022-08-10T04:38:06.967Z,4.40
2022-08-10T04:40:36.274Z,4.90
2022-08-10T04:43:12.227Z,4.28
2022-08-10T04:45:49.080Z,4.57
2022-08-10T04:48:42.916Z,4.07
2022-08-10T04:51:19.214Z,4.00
2022-08-10T04:54:05.681Z,3.80
2022-08-10T04:56:37.514Z,4.13
2022-08-10T04:59:08.175Z,3.92
2022-08-10T05:02:21.449Z,3.90
2022-08-10T05:04:35.699Z,4.13
2022-08-10T05:07:09.251Z,3.85
2022-08-10T05:10:04.633Z,4.32
2022-08-10T05:12:31.277Z,4.33
2022-08-10T05:15:02.837Z,3.95
2022-08-10T05:17:34.271Z,5.22
2022-08-10T05:20:07.793Z,4.70
2022-08-10T05:22:38.548Z,4.35
2022-08-10T05:25:10.494Z,4.50
2022-08-10T05:27:39.979Z,4.47
2022-08-10T05:30:13.812Z,4.45
2022-08-10T05:32:57.472Z,4.40
2022-08-10T05:35:57.508Z,4.22
2022-08-10T05:38:25.376Z,4.45
2022-08-10T05:40:56.573Z,4.85
2022-08-10T05:43:25.971Z,4.25
2022-08-10T05:46:16.756Z,5.13
2022-08-10T05:48:59.312Z,6.53
2022-08-10T05:51:31.064Z,5.25
2022-08-10T05:54:06.020Z,6.55
2022-08-10T05:56:57.207Z,5.57
2022-08-10T06:00:32.953Z,6.03
2022-08-10T06:02:34.132Z,5.70
2022-08-10T06:05:10.781Z,4.93
2022-08-10T06:07:43.273Z,6.07
2022-08-10T06:10:19.642Z,6.43
2022-08-10T06:13:30.137Z,5.60
2022-08-10T06:16:04.630Z,5.85
2022-08-10T06:18:34.730Z,6.03
2022-08-10T06:21:04.534Z,6.13
2022-08-10T06:23:34.679Z,6.68
2022-08-10T06:26:10.762Z,6.47
2022-08-10T06:28:54.093Z,6.45
2022-08-10T06:31:48.407Z,6.10
2022-08-10T06:34:24.672Z,5.80
2022-08-10T06:36:57.445Z,6.38
2022-08-10T06:39:35.598Z,4.97
2022-08-10T06:42:15.783Z,6.50
2022-08-10T06:44:53.659Z,5.88
2022-08-10T06:47:26.215Z,6.18
2022-08-10T06:50:02.857Z,5.95
2022-08-10T06:55:16.919Z,6.32
2022-08-10T06:58:00.139Z,5.97
2022-08-10T07:00:34.709Z,5.30
2022-08-10T07:03:08.839Z,6.15
2022-08-10T07:05:39.970Z,6.28
2022-08-10T07:08:11.450Z,7.00
2022-08-10T07:10:46.349Z,6.13
2022-08-10T07:14:17.512Z,5.50
2022-08-10T07:16:13.430Z,6.00
2022-08-10T07:18:47.227Z,6.85
2022-08-10T07:21:16.854Z,5.80
2022-08-10T07:24:00.072Z,6.38
2022-08-10T07:26:32.548Z,6.10
2022-08-10T07:29:03.109Z,5.68
2022-08-10T07:31:56.548Z,5.60
2022-08-10T07:34:29.108Z,4.90
2022-08-10T07:37:02.159Z,4.93
2022-08-10T07:39:59.530Z,3.88
2022-08-10T07:42:23.492Z,4.05
2022-08-10T07:44:53.236Z,4.60
2022-08-10T07:47:52.499Z,4.03
2022-08-10T07:50:17.972Z,5.22
2022-08-10T07:52:47.999Z,4.57
2022-08-10T07:55:18.876Z,4.18
2022-08-10T07:57:50.450Z,5.03
2022-08-10T08:00:20.459Z,5.07
2022-08-10T08:02:53.585Z,4.47
2022-08-10T08:05:27.616Z,5.53
2022-08-10T08:08:16.794Z,5.05
2022-08-10T08:10:47.701Z,4.57
2022-08-10T08:13:18.494Z,5.30
2022-08-10T08:16:19.902Z,5.00
2022-08-10T08:18:43.739Z,4.85
2022-08-10T08:24:10.319Z,4.47
2022-08-10T08:24:33.608Z,4.10
2022-08-10T08:27:04.098Z,3.15
2022-08-10T08:29:35.209Z,2.95
2022-08-10T08:32:05.260Z,2.93
2022-08-10T08:34:41.111Z,2.30
2022-08-10T08:37:12.074Z,2.10
2022-08-10T08:39:47.213Z,1.95
2022-08-10T08:42:35.763Z,2.50
2022-08-10T08:45:10.415Z,2.20
2022-08-10T08:48:04.893Z,2.47
2022-08-10T08:50:41.900Z,2.33
2022-08-10T08:53:22.133Z,2.53
2022-08-10T08:56:05.407Z,2.25
2022-08-10T08:58:44.185Z,2.85
2022-08-10T09:01:21.316Z,2.20
2022-08-10T09:03:57.129Z,2.10
2022-08-10T09:06:45.768Z,1.60
2022-08-10T09:09:23.377Z,2.15
2022-08-10T09:12:01.897Z,2.15
2022-08-10T09:14:32.831Z,1.98
2022-08-10T09:17:07.626Z,1.50
2022-08-10T09:19:44.196Z,1.85
2022-08-10T09:22:21.499Z,1.77
2022-08-10T09:24:54.042Z,2.08
2022-08-10T09:27:24.833Z,1.25
2022-08-10T09:29:57.135Z,1.70
2022-08-10T09:35:40.069Z,1.23
2022-08-10T09:36:24.066Z,1.40
2022-08-10T09:38:25.133Z,1.98
2022-08-10T09:41:05.000Z,1.13
2022-08-10T09:43:44.398Z,1.38
2022-08-10T09:46:22.757Z,1.33
2022-08-10T09:49:03.568Z,1.98
2022-08-10T09:51:47.127Z,1.13
2022-08-10T09:54:25.128Z,1.40
2022-08-10T09:57:12.289Z,1.00
2022-08-10T10:00:01.157Z,1.20
2022-08-10T10:02:40.885Z,1.40
2022-08-10T10:05:15.958Z,1.45
2022-08-10T10:07:53.165Z,1.30
2022-08-10T10:10:32.048Z,1.30
2022-08-10T10:13:09.145Z,1.33
2022-08-10T10:15:43.099Z,1.23
2022-08-10T10:18:19.227Z,1.27
2022-08-10T10:20:57.777Z,1.10
2022-08-10T10:23:31.780Z,1.00
2022-08-10T10:26:13.000Z,1.17
2022-08-10T10:29:24.679Z,0.88
2022-08-10T10:31:45.573Z,1.23
2022-08-10T10:34:17.744Z,1.15
2022-08-10T10:36:47.684Z,1.15
2022-08-10T10:39:22.056Z,0.93
2022-08-10T10:42:04.352Z,1.27
2022-08-10T10:44:42.249Z,0.93
2022-08-10T10:47:30.413Z,1.23
2022-08-10T10:50:05.231Z,0.98
2022-08-10T10:52:40.569Z,0.90
2022-08-10T10:55:15.066Z,1.08
2022-08-10T10:57:58.585Z,0.80
2022-08-10T11:00:33.499Z,1.08
2022-08-10T11:03:18.098Z,0.70
2022-08-10T11:05:51.862Z,0.70
2022-08-10T11:08:29.582Z,0.73
2022-08-10T11:11:06.670Z,0.85
2022-08-10T11:14:27.428Z,1.08
2022-08-10T11:16:55.841Z,0.60
2022-08-10T11:20:01.354Z,1.02
2022-08-10T11:22:29.862Z,0.75
2022-08-10T11:25:10.581Z,0.80
2022-08-10T11:27:44.917Z,0.70
2022-08-10T11:30:19.704Z,0.52
2022-08-10T11:32:57.032Z,0.60
2022-08-10T11:35:34.642Z,0.82
2022-08-10T11:38:31.119Z,0.50
2022-08-10T11:42:06.743Z,0.60
2022-08-10T11:43:56.266Z,0.85
2022-08-10T11:46:31.839Z,0.60
2022-08-10T11:49:05.862Z,0.55
2022-08-10T11:51:41.369Z,0.60
2022-08-10T11:54:12.913Z,0.50
2022-08-10T11:56:46.802Z,0.57
2022-08-10T11:59:34.582Z,0.70
2022-08-10T12:02:06.484Z,1.10
2022-08-10T12:04:41.927Z,0.60
2022-08-10T12:10:05.208Z,0.95
2022-08-10T12:10:09.837Z,0.70
2022-08-10T12:12:47.594Z,0.90
2022-08-10T12:15:21.516Z,0.40
2022-08-10T12:17:54.454Z,0.75
2022-08-10T12:20:28.494Z,0.65
2022-08-10T12:22:59.842Z,0.77
2022-08-10T12:25:55.749Z,0.70
2022-08-10T12:28:50.015Z,0.70
2022-08-10T12:31:17.215Z,0.80
2022-08-10T12:34:02.138Z,0.93
2022-08-10T12:36:35.654Z,0.90
2022-08-10T12:39:06.523Z,0.70
2022-08-10T12:41:44.717Z,0.70
2022-08-10T12:44:18.507Z,0.82
2022-08-10T12:46:52.428Z,0.75
2022-08-10T12:49:28.030Z,1.30
2022-08-10T12:52:01.137Z,1.10
2022-08-10T12:54:32.387Z,1.00
2022-08-10T12:59:33.948Z,0.70
2022-08-10T13:02:20.922Z,1.60
2022-08-10T13:04:52.639Z,0.60
2022-08-10T13:08:25.294Z,1.02
2022-08-10T13:10:15.503Z,0.65
2022-08-10T13:12:46.647Z,0.57
2022-08-10T13:15:45.533Z,0.70
2022-08-10T13:18:18.767Z,0.52
2022-08-10T13:20:54.202Z,0.70
2022-08-10T13:23:25.366Z,1.15
2022-08-10T13:25:55.983Z,0.70
2022-08-10T13:28:36.366Z,0.73
2022-08-10T13:31:11.488Z,1.10
2022-08-10T13:34:40.043Z,1.30
2022-08-10T13:36:44.456Z,0.68
2022-08-10T13:39:14.130Z,1.25
2022-08-10T13:41:45.124Z,0.70
2022-08-10T13:44:17.441Z,0.73
2022-08-10T13:46:50.465Z,0.70
2022-08-10T13:49:20.799Z,0.80
2022-08-10T13:51:56.815Z,0.60
2022-08-10T13:54:29.894Z,1.38
2022-08-10T13:57:03.006Z,0.70
2022-08-10T14:00:33.731Z,0.68
2022-08-10T14:02:28.159Z,1.38
2022-08-10T14:04:58.537Z,1.10
2022-08-10T14:07:29.975Z,0.50
2022-08-10T14:10:02.014Z,0.52
2022-08-10T14:12:34.435Z,0.90
2022-08-10T14:15:05.154Z,0.52
2022-08-10T14:17:34.850Z,0.70
2022-08-10T14:20:10.594Z,0.90
2022-08-10T14:22:44.740Z,1.80
2022-08-10T14:25:15.060Z,1.67
2022-08-10T14:28:03.454Z,2.20
2022-08-10T14:30:37.683Z,1.35
2022-08-10T14:33:10.269Z,1.27
2022-08-10T14:36:21.675Z,1.20
2022-08-10T14:38:35.973Z,1.17
2022-08-10T14:41:06.850Z,0.90
2022-08-10T14:43:37.498Z,1.10
2022-08-10T14:46:08.519Z,1.13
2022-08-10T14:48:41.903Z,0.90
2022-08-10T14:51:12.813Z,0.75
2022-08-10T14:53:47.602Z,0.95
2022-08-10T14:56:19.853Z,0.98
2022-08-10T15:00:14.637Z,0.70
2022-08-10T15:02:38.258Z,1.10
2022-08-10T15:05:09.073Z,0.75
2022-08-10T15:07:39.485Z,1.02
2022-08-10T15:10:10.627Z,0.70
2022-08-10T15:12:40.762Z,0.80
2022-08-10T15:15:11.768Z,0.70
2022-08-10T15:17:48.799Z,0.80
2022-08-10T15:20:20.826Z,0.77
2022-08-10T15:22:51.466Z,0.98
2022-08-10T15:25:25.160Z,0.65
2022-08-10T15:27:58.935Z,0.98
2022-08-10T15:30:40.725Z,0.70
2022-08-10T15:34:03.496Z,0.93
2022-08-10T15:36:37.163Z,0.68
2022-08-10T15:39:12.175Z,0.65
2022-08-10T15:41:59.561Z,0.70
2022-08-10T15:44:45.773Z,0.77
2022-08-10T15:47:19.972Z,0.73
2022-08-10T15:49:55.038Z,0.80
2022-08-10T15:52:39.183Z,0.80
2022-08-10T15:55:42.660Z,1.20
2022-08-10T15:58:19.810Z,0.73
2022-08-10T16:00:51.412Z,0.60
2022-08-10T16:03:24.951Z,0.70
2022-08-10T16:06:02.088Z,0.73
2022-08-10T16:08:56.247Z,0.95
2022-08-10T16:11:37.371Z,0.82
2022-08-10T16:14:11.997Z,0.73
2022-08-10T16:16:42.163Z,0.73
2022-08-10T16:19:22.118Z,0.65
2022-08-10T16:21:58.606Z,0.70
2022-08-10T16:24:31.984Z,0.75
2022-08-10T16:27:10.589Z,0.80
2022-08-10T16:29:55.732Z,1.40
2022-08-10T16:32:26.278Z,0.90
2022-08-10T16:34:56.507Z,1.52
2022-08-10T16:37:57.388Z,1.25
2022-08-10T16:40:22.955Z,1.10
2022-08-10T16:42:53.005Z,1.10
2022-08-10T16:45:26.467Z,1.90
2022-08-10T16:47:57.935Z,1.10
2022-08-10T16:50:28.691Z,1.00
2022-08-10T16:53:00.670Z,0.82
2022-08-10T16:55:49.222Z,1.00
2022-08-10T16:58:21.625Z,0.82
2022-08-10T17:00:52.984Z,0.82
2022-08-10T17:04:07.569Z,0.77
2022-08-10T17:06:21.184Z,1.33
2022-08-10T17:08:53.315Z,1.10
2022-08-10T17:11:24.205Z,0.93
2022-08-10T17:13:56.920Z,1.00
2022-08-10T17:16:27.926Z,1.00
2022-08-10T17:18:59.405Z,1.00
2022-08-10T17:21:34.000Z,0.98
2022-08-10T17:24:05.106Z,0.93
2022-08-10T17:26:37.657Z,0.90
2022-08-10T17:29:09.978Z,0.95
2022-08-10T17:32:01.669Z,0.80
2022-08-10T17:34:32.652Z,1.00
2022-08-10T17:37:04.414Z,1.10
2022-08-10T17:39:36.083Z,1.27
2022-08-10T17:42:10.863Z,1.10
2022-08-10T17:44:41.005Z,1.00
2022-08-10T17:47:12.923Z,1.40
2022-08-10T17:49:44.714Z,1.05
2022-08-10T17:52:15.886Z,0.95
2022-08-10T17:54:48.943Z,1.43
2022-08-10T17:57:21.352Z,0.80
2022-08-10T17:59:53.145Z,1.10
2022-08-10T18:02:26.210Z,1.50
2022-08-10T18:04:57.560Z,1.00
2022-08-10T18:07:33.374Z,0.80
2022-08-10T18:10:03.891Z,1.63
2022-08-10T18:12:39.048Z,1.10
2022-08-10T18:15:13.349Z,1.88
2022-08-10T18:17:47.534Z,0.82
2022-08-10T18:20:28.172Z,0.90
2022-08-10T18:22:59.211Z,1.35
2022-08-10T18:25:36.771Z,1.00
2022-08-10T18:28:09.714Z,1.45
2022-08-10T18:30:48.275Z,1.35
2022-08-10T18:33:20.527Z,0.98
2022-08-10T18:35:50.710Z,1.08
2022-08-10T18:38:20.609Z,1.50
2022-08-10T18:40:53.176Z,1.10
2022-08-10T18:44:06.915Z,1.20
2022-08-10T18:46:18.006Z,1.45
2022-08-10T18:48:52.489Z,1.30
2022-08-10T18:51:25.606Z,1.50
2022-08-10T18:53:57.199Z,1.40
2022-08-10T18:56:34.056Z,1.20
2022-08-10T18:59:10.907Z,1.13
2022-08-10T19:01:50.477Z,1.00
2022-08-10T19:04:25.086Z,1.40
2022-08-10T19:07:06.170Z,0.95
2022-08-10T19:09:47.299Z,1.67
2022-08-10T19:12:29.977Z,1.33
2022-08-10T19:15:07.051Z,1.20
2022-08-10T19:18:02.848Z,1.30
2022-08-10T19:20:37.092Z,1.70
2022-08-10T19:23:15.363Z,1.40
2022-08-10T19:26:41.217Z,1.30
2022-08-10T19:28:49.503Z,1.40
2022-08-10T19:31:41.939Z,1.30
2022-08-10T19:34:22.426Z,2.00
2022-08-10T19:37:00.668Z,1.27
2022-08-10T19:39:33.367Z,1.50
2022-08-10T19:42:31.030Z,1.20
2022-08-10T19:45:06.011Z,2.10
2022-08-10T19:47:37.750Z,1.40
2022-08-10T19:50:09.557Z,2.20
2022-08-10T19:52:43.539Z,1.27
2022-08-10T19:55:17.663Z,1.20
2022-08-10T19:57:51.503Z,1.67
2022-08-10T20:00:28.541Z,1.38
2022-08-10T20:03:12.228Z,2.00
2022-08-10T20:06:13.401Z,1.38
2022-08-10T20:08:44.154Z,1.50
2022-08-10T20:11:45.765Z,1.25
2022-08-10T20:14:21.411Z,1.92
2022-08-10T20:16:55.703Z,1.52
2022-08-10T20:19:52.812Z,1.67
2022-08-10T20:22:29.815Z,1.80
2022-08-10T20:25:03.900Z,2.20
2022-08-10T20:27:58.987Z,1.77
2022-08-10T20:30:29.187Z,1.50
2022-08-10T20:32:59.731Z,1.90
2022-08-10T20:35:32.691Z,1.80
2022-08-10T20:38:06.851Z,2.10
2022-08-10T20:40:45.720Z,2.70
2022-08-10T20:43:21.812Z,2.72
2022-08-10T20:46:08.332Z,2.05
2022-08-10T20:48:40.369Z,2.25
2022-08-10T20:51:16.045Z,1.90
2022-08-10T20:53:49.017Z,1.80
2022-08-10T20:56:28.998Z,2.40
2022-08-10T20:59:21.427Z,2.33
2022-08-10T21:02:06.163Z,2.22
2022-08-10T21:04:49.502Z,2.47
2022-08-10T21:07:50.577Z,3.20
2022-08-10T21:10:20.441Z,2.25
2022-08-10T21:12:58.568Z,2.08
2022-08-10T21:15:42.005Z,2.40
2022-08-10T21:18:21.589Z,2.17
2022-08-10T21:20:59.582Z,2.28
2022-08-10T21:23:31.094Z,2.15
2022-08-10T21:26:09.218Z,2.60
2022-08-10T21:28:54.086Z,3.72
2022-08-10T21:31:41.345Z,3.90
2022-08-10T21:34:19.852Z,3.33
2022-08-10T21:37:00.701Z,3.90
2022-08-10T21:39:45.118Z,3.10
2022-08-10T21:42:40.597Z,2.97
2022-08-10T21:45:58.209Z,2.60
2022-08-10T21:48:57.751Z,2.65
2022-08-10T21:52:00.629Z,3.28
2022-08-10T21:54:53.722Z,2.65
2022-08-10T21:57:47.625Z,3.08
2022-08-10T22:00:36.482Z,3.10
2022-08-10T22:03:24.011Z,3.40
2022-08-10T22:06:12.722Z,2.78
2022-08-10T22:09:01.633Z,3.60
2022-08-10T22:11:51.737Z,3.05
2022-08-10T22:14:43.814Z,3.30
2022-08-10T22:20:44.688Z,3.20
2022-08-10T22:23:37.661Z,2.92
2022-08-10T22:26:45.329Z,3.72
2022-08-10T22:31:28.765Z,3.17
2022-08-10T22:32:42.100Z,2.85
2022-08-10T22:35:48.943Z,4.13
2022-08-10T22:38:39.443Z,3.35
2022-08-10T22:41:29.105Z,2.97
2022-08-10T22:44:19.532Z,3.25
2022-08-10T22:47:09.517Z,3.33
2022-08-10T22:49:38.904Z,3.75
2022-08-10T22:52:09.327Z,3.80
2022-08-10T22:54:59.014Z,3.10
2022-08-10T22:57:45.811Z,5.15
2022-08-10T23:00:16.696Z,4.22
2022-08-10T23:02:52.204Z,3.78
2022-08-10T23:05:30.988Z,3.50
2022-08-10T23:08:03.246Z,3.50
2022-08-10T23:10:36.920Z,3.58
2022-08-10T23:13:11.750Z,3.60
2022-08-10T23:16:09.706Z,3.83
2022-08-10T23:18:59.516Z,3.53
2022-08-10T23:22:03.355Z,3.85
2022-08-10T23:24:27.882Z,4.03
2022-08-10T23:27:13.058Z,3.88
2022-08-10T23:30:03.737Z,4.10
2022-08-10T23:32:43.551Z,3.88
2022-08-10T23:36:31.003Z,4.10
2022-08-10T23:38:06.961Z,3.33
2022-08-10T23:40:38.426Z,10.65
2022-08-10T23:43:09.029Z,6.97
2022-08-10T23:45:52.534Z,4.15
2022-08-10T23:48:25.777Z,4.40
2022-08-10T23:50:59.790Z,4.65
2022-08-10T23:53:34.877Z,4.60
2022-08-10T23:56:07.538Z,4.35
2022-08-10T23:58:39.646Z,5.22
